Time;durP1;ratioP1;P1;durP2;ratioP2;P2;SDS_P1;SDS_P2;PMS_P1;PMS_P2;Temp;Humidity;BMP_temperature;BMP_pressure;BME280_temperature;BME280_humidity;BME280_pressure;Samples;Min_cycle;Max_cycle;Signal;HPM_P1;HPM_P2
2021/07/12 00:01:57;;;;;;;30.40;21.75;;;;;;;15.56;77.75;101551.22;5043837;28;20477;-59
2021/07/12 00:04:22;;;;;;;28.60;21.88;;;;;;;15.52;77.83;101557.47;5043795;28;20037;-59
2021/07/12 00:06:48;;;;;;;28.48;21.98;;;;;;;15.48;78.02;101558.38;5044801;28;20064;-59
2021/07/12 00:09:13;;;;;;;31.27;21.73;;;;;;;15.48;77.97;101561.03;5043842;28;20049;-58
2021/07/12 00:11:38;;;;;;;28.13;21.52;;;;;;;15.46;78.04;101554.84;5041020;28;20029;-59
2021/07/12 00:14:04;;;;;;;30.13;22.65;;;;;;;15.41;77.75;101546.09;5044556;28;20036;-59
2021/07/12 00:16:29;;;;;;;29.70;21.85;;;;;;;15.37;78.08;101541.75;5044103;28;20057;-59
2021/07/12 00:18:55;;;;;;;33.10;22.65;;;;;;;15.32;78.34;101544.41;5043803;28;20120;-59
2021/07/12 00:21:20;;;;;;;33.28;23.23;;;;;;;15.27;78.64;101535.63;5043425;28;20033;-59
2021/07/12 00:23:45;;;;;;;32.92;23.33;;;;;;;15.26;78.71;101541.84;5026275;28;20037;-58
2021/07/12 00:26:11;;;;;;;32.28;23.65;;;;;;;15.25;78.65;101536.53;5043174;28;20040;-59
2021/07/12 00:28:36;;;;;;;31.10;22.80;;;;;;;15.23;78.97;101541.84;5042581;28;20037;-59
2021/07/12 00:31:02;;;;;;;32.97;23.33;;;;;;;15.23;78.62;101538.34;5044968;28;20045;-58
2021/07/12 00:33:28;;;;;;;34.22;25.17;;;;;;;15.20;78.94;101534.84;5040235;28;20039;-59
2021/07/12 00:35:53;;;;;;;33.65;23.30;;;;;;;15.20;78.86;101534.84;5042228;28;20025;-58
2021/07/12 00:38:19;;;;;;;37.28;26.63;;;;;;;15.20;79.21;101526.88;5040912;28;20038;-59
2021/07/12 00:40:44;;;;;;;36.97;25.50;;;;;;;15.20;78.77;101534.84;5042511;28;20037;-58
2021/07/12 00:43:09;;;;;;;34.65;24.65;;;;;;;15.23;79.24;101533.91;5043597;28;20121;-59
2021/07/12 00:45:36;;;;;;;35.92;25.15;;;;;;;15.23;78.80;101525.97;5028757;28;20107;-58
2021/07/12 00:48:03;;;;;;;36.92;26.33;;;;;;;15.25;79.10;101525.97;5042453;28;20064;-58
2021/07/12 00:50:32;;;;;;;38.38;26.52;;;;;;;15.28;79.07;101528.59;5041479;28;20053;-59
2021/07/12 00:52:58;;;;;;;38.03;27.30;;;;;;;15.32;79.18;101528.53;5041459;28;20057;-59
2021/07/12 00:55:38;;;;;;;41.38;28.75;;;;;;;15.36;79.30;101517.00;5043566;28;21366;-59
2021/07/12 00:58:08;;;;;;;49.28;32.00;;;;;;;15.36;79.26;101514.34;5041653;28;20033;-59
2021/07/12 01:00:35;;;;;;;51.97;33.08;;;;;;;15.38;79.19;101501.09;5042746;28;20042;-59
2021/07/12 01:03:00;;;;;;;63.67;40.22;;;;;;;15.43;78.83;101506.38;5024826;28;20029;-59
2021/07/12 01:05:29;;;;;;;63.80;38.33;;;;;;;15.46;78.46;101501.88;5043183;28;20032;-59
2021/07/12 01:07:55;;;;;;;60.88;37.88;;;;;;;15.49;79.11;101498.34;5042738;28;20055;-59
2021/07/12 01:10:22;;;;;;;66.53;42.20;;;;;;;15.50;78.04;101498.34;5042276;28;20038;-59
2021/07/12 01:13:25;;;;;;;68.38;41.67;;;;;;;15.52;78.55;101501.84;5043055;28;20029;-59
2021/07/12 01:16:30;;;;;;;68.40;42.63;;;;;;;15.53;78.79;101490.34;5043475;28;20037;-59
2021/07/12 01:19:28;;;;;;;68.25;41.53;;;;;;;15.53;79.14;101492.97;5039550;28;20048;-59
2021/07/12 01:22:27;;;;;;;70.82;43.22;;;;;;;15.53;78.79;101502.69;5040073;28;20079;-59
2021/07/12 01:25:37;;;;;;;79.35;44.25;;;;;;;15.53;78.58;101500.06;5042541;28;20037;-59
2021/07/12 01:28:15;;;;;;;74.45;44.03;;;;;;;15.56;78.76;101492.09;5042861;28;20033;-58
2021/07/12 01:31:08;;;;;;;67.30;41.85;;;;;;;15.58;79.28;101488.50;5044026;28;20033;-58
2021/07/12 01:33:42;;;;;;;69.55;43.38;;;;;;;15.59;78.61;101489.38;5042867;28;20034;-59
2021/07/12 01:36:20;;;;;;;71.85;43.13;;;;;;;15.65;78.89;101485.78;5047470;28;20063;-59
2021/07/12 01:39:13;;;;;;;66.97;41.53;;;;;;;15.65;78.63;101489.34;5046484;28;20059;-59
2021/07/12 01:41:49;;;;;;;71.85;42.50;;;;;;;15.68;78.61;101488.41;5047416;28;20060;-58
2021/07/12 01:44:45;;;;;;;71.25;42.30;;;;;;;15.70;78.89;101495.41;5046544;28;20025;-59
2021/07/12 01:47:41;;;;;;;70.85;42.75;;;;;;;15.71;79.01;101480.44;5047630;28;20041;-59
2021/07/12 01:50:23;;;;;;;72.35;44.45;;;;;;;15.71;78.95;101481.28;5046593;28;20106;-59
2021/07/12 01:53:05;;;;;;;80.72;47.00;;;;;;;15.75;78.64;101477.75;5046866;28;20033;-58
2021/07/12 01:55:40;;;;;;;75.78;43.53;;;;;;;15.79;79.04;101481.22;5045188;28;20044;-58
2021/07/12 01:58:08;;;;;;;80.80;47.10;;;;;;;15.79;78.97;101482.09;5046214;28;20055;-58
2021/07/12 02:00:34;;;;;;;80.70;47.58;;;;;;;15.84;78.88;101474.09;5042500;28;20174;-58
2021/07/12 02:03:01;;;;;;;88.60;49.13;;;;;;;15.88;79.39;101474.91;5046349;28;20044;-59
2021/07/12 02:05:30;;;;;;;86.78;50.55;;;;;;;15.88;78.94;101474.91;5046396;28;20400;-59
2021/07/12 02:07:57;;;;;;;81.18;50.05;;;;;;;15.89;78.02;101480.19;5045551;28;20041;-59
2021/07/12 02:10:27;;;;;;;80.10;47.20;;;;;;;15.91;78.63;101477.53;5046794;28;20029;-58
2021/07/12 02:12:54;;;;;;;82.55;46.92;;;;;;;15.93;78.25;101473.06;5046774;28;20029;-58
2021/07/12 02:15:19;;;;;;;77.10;46.35;;;;;;;15.94;78.62;101475.72;5046613;28;20065;-58
2021/07/12 02:17:49;;;;;;;86.65;50.38;;;;;;;15.94;78.69;101470.41;5046449;28;20044;-58
2021/07/12 02:20:16;;;;;;;85.18;47.88;;;;;;;15.94;78.48;101462.47;5044698;28;20025;-58
2021/07/12 02:22:42;;;;;;;77.00;47.08;;;;;;;15.96;78.60;101460.66;5028514;28;20029;-60
2021/07/12 02:25:12;;;;;;;78.70;46.55;;;;;;;15.98;78.29;101450.03;5046346;28;20084;-58
2021/07/12 02:27:37;;;;;;;;;;;;;;;15.98;78.21;101453.56;5046311;28;20037;-62
2021/07/12 02:30:05;;;;;;;78.13;45.70;;;;;;;16.00;78.09;101448.25;5045278;28;20008;-58
2021/07/12 02:32:31;;;;;;;76.10;45.13;;;;;;;16.00;78.65;101448.25;5046416;28;20044;-63
2021/07/12 02:34:59;;;;;;;74.13;44.53;;;;;;;16.00;78.44;101444.72;5045299;28;20033;-59
2021/07/12 02:37:27;;;;;;;79.13;46.63;;;;;;;16.00;78.24;101448.25;5046896;28;20025;-58
2021/07/12 02:39:53;;;;;;;76.07;45.90;;;;;;;16.01;78.61;101444.72;5045184;28;20025;-59
2021/07/12 02:42:19;;;;;;;76.07;46.25;;;;;;;15.98;78.29;101435.00;5046207;28;20033;-58
2021/07/12 02:44:50;;;;;;;77.70;46.38;;;;;;;16.00;78.88;101435.00;5046547;28;20033;-59
2021/07/12 02:47:16;;;;;;;74.75;44.78;;;;;;;16.00;78.47;101429.69;5046327;28;20041;-59
2021/07/12 02:49:43;;;;;;;76.25;44.53;;;;;;;16.01;78.46;101419.97;5027995;28;20054;-59
2021/07/12 02:52:20;;;;;;;73.70;45.30;;;;;;;16.00;78.42;101419.09;5045302;28;20114;-59
2021/07/12 02:54:47;;;;;;;71.80;42.88;;;;;;;15.99;78.48;101414.69;5045973;28;20035;-59
2021/07/12 02:57:13;;;;;;;75.22;44.30;;;;;;;16.01;78.46;101420.84;5044208;28;20041;-59
2021/07/12 02:59:39;;;;;;;72.07;44.20;;;;;;;15.98;78.68;101408.50;5045948;28;20034;-59
2021/07/12 03:02:05;;;;;;;71.47;43.22;;;;;;;16.00;78.50;101411.13;5044368;28;20111;-59
2021/07/12 03:04:30;;;;;;;74.47;44.72;;;;;;;15.97;78.42;101408.53;5045473;28;20119;-59
2021/07/12 03:06:59;;;;;;;76.30;44.47;;;;;;;15.96;78.23;101406.78;5046355;28;20026;-59
2021/07/12 03:09:35;;;;;;;73.05;43.47;;;;;;;15.95;79.00;101403.28;5045341;28;20026;-59
2021/07/12 03:12:09;;;;;;;76.25;44.63;;;;;;;15.95;78.74;101405.91;5045546;28;20037;-59
2021/07/12 03:14:53;;;;;;;76.85;44.58;;;;;;;15.95;78.88;101399.72;5045850;28;20025;-59
2021/07/12 03:17:21;;;;;;;72.63;44.20;;;;;;;15.95;78.97;101405.91;5045696;28;20033;-59
2021/07/12 03:19:48;;;;;;;77.03;44.03;;;;;;;15.96;79.15;101401.50;5044543;28;20045;-59
2021/07/12 03:22:15;;;;;;;75.75;44.10;;;;;;;15.97;79.27;101397.91;5044631;28;20053;-59
2021/07/12 03:24:42;;;;;;;76.35;43.75;;;;;;;16.00;78.95;101391.72;5045454;28;20047;-59
2021/07/12 03:27:11;;;;;;;71.93;43.05;;;;;;;16.04;78.05;101388.13;5045131;28;20025;-59
2021/07/12 03:29:38;;;;;;;72.22;44.17;;;;;;;16.07;78.31;101390.72;5044605;28;20030;-58
2021/07/12 03:32:05;;;;;;;69.85;42.13;;;;;;;16.09;78.14;101388.94;5044742;28;20093;-58
2021/07/12 03:34:32;;;;;;;73.95;44.55;;;;;;;16.11;78.37;101395.94;5045228;28;20045;-59
2021/07/12 03:37:00;;;;;;;68.07;41.20;;;;;;;16.13;78.90;101387.97;5041084;28;20044;-58
2021/07/12 03:39:27;;;;;;;73.68;43.72;;;;;;;16.15;78.54;101388.81;5042202;28;20021;-59
2021/07/12 03:41:53;;;;;;;70.65;42.92;;;;;;;16.15;78.75;101392.34;5044416;28;20037;-59
2021/07/12 03:44:19;;;;;;;72.47;42.88;;;;;;;16.15;78.91;101383.53;5044783;28;20107;-59
2021/07/12 03:46:45;;;;;;;70.57;43.35;;;;;;;16.16;78.97;101382.59;5044706;28;20033;-59
2021/07/12 03:49:16;;;;;;;69.40;41.97;;;;;;;16.14;78.81;101374.69;5044955;28;20044;-59
2021/07/12 03:51:42;;;;;;;70.13;44.20;;;;;;;16.15;79.26;101378.22;5042376;28;20140;-59
2021/07/12 03:54:08;;;;;;;69.85;43.78;;;;;;;16.13;78.83;101378.25;5044900;28;20041;-59
2021/07/12 03:56:34;;;;;;;73.93;43.83;;;;;;;16.12;79.04;101387.09;5039895;28;20041;-59
2021/07/12 03:59:00;;;;;;;74.32;43.72;;;;;;;16.10;78.99;101380.94;5043939;28;20417;-59
2021/07/12 04:01:25;;;;;;;69.72;42.58;;;;;;;16.10;79.13;101390.66;5044449;28;20029;-58
2021/07/12 04:03:53;;;;;;;67.72;42.30;;;;;;;16.11;79.37;101387.13;5022140;28;20064;-59
2021/07/12 04:06:19;;;;;;;72.93;43.15;;;;;;;16.12;79.35;101391.50;5044328;28;20053;-58
2021/07/12 04:08:44;;;;;;;72.82;44.40;;;;;;;16.11;79.52;101385.34;5043938;28;20112;-59
2021/07/12 04:11:11;;;;;;;68.35;41.20;;;;;;;16.14;79.42;101384.41;5044225;28;20057;-59
2021/07/12 04:13:37;;;;;;;71.07;42.88;;;;;;;16.15;79.33;101381.75;5044316;28;20060;-58
2021/07/12 04:16:03;;;;;;;70.80;43.08;;;;;;;16.16;79.45;101375.56;5044282;28;20040;-59
2021/07/12 04:18:28;;;;;;;70.35;42.40;;;;;;;16.18;79.56;101373.75;5043585;28;20030;-58
2021/07/12 04:20:53;;;;;;;74.43;44.00;;;;;;;16.20;79.47;101368.41;5044092;28;20021;-58
2021/07/12 04:23:19;;;;;;;67.05;42.25;;;;;;;16.21;79.68;101362.19;5043486;28;20044;-59
2021/07/12 04:25:45;;;;;;;68.95;42.55;;;;;;;16.22;79.75;101365.72;5044209;28;20416;-59
2021/07/12 04:28:10;;;;;;;71.38;44.58;;;;;;;16.23;79.21;101367.47;5042774;28;20060;-58
2021/07/12 04:30:36;;;;;;;70.75;42.40;;;;;;;16.27;79.27;101363.88;5043309;28;20033;-58
2021/07/12 04:33:01;;;;;;;70.20;43.22;;;;;;;16.26;78.99;101364.78;5043246;28;20037;-59
2021/07/12 04:35:27;;;;;;;69.45;43.13;;;;;;;16.26;79.46;101352.41;5043726;28;20390;-59
2021/07/12 04:37:52;;;;;;;71.78;42.38;;;;;;;16.28;79.15;101361.19;5043230;28;20089;-58
2021/07/12 04:40:18;;;;;;;71.43;42.60;;;;;;;16.29;79.54;101354.97;5037967;28;20187;-58
2021/07/12 04:42:43;;;;;;;70.38;42.45;;;;;;;16.32;79.59;101356.72;5044072;28;20062;-58
2021/07/12 04:45:10;;;;;;;65.78;41.50;;;;;;;16.33;79.64;101351.41;5043650;28;20030;-59
2021/07/12 04:47:35;;;;;;;69.65;42.70;;;;;;;16.36;79.56;101348.69;5043395;28;20036;-59
2021/07/12 04:50:01;;;;;;;67.75;42.67;;;;;;;16.38;79.69;101344.22;5042435;28;20461;-58
2021/07/12 04:52:26;;;;;;;67.63;41.80;;;;;;;16.40;79.34;101345.97;5043820;28;20056;-58
2021/07/12 04:54:52;;;;;;;67.57;41.50;;;;;;;16.44;78.92;101350.31;5043672;28;20455;-58
2021/07/12 04:57:17;;;;;;;66.00;42.05;;;;;;;16.48;79.20;101346.69;5044379;28;20068;-58
2021/07/12 04:59:44;;;;;;;67.85;41.58;;;;;;;16.49;78.45;101340.50;5042702;28;20811;-59
2021/07/12 05:02:12;;;;;;;67.07;42.47;;;;;;;16.50;79.04;101332.53;5042857;28;20021;-58
2021/07/12 05:04:37;;;;;;;64.53;40.63;;;;;;;16.56;79.07;101334.19;5042441;28;20033;-58
2021/07/12 05:07:04;;;;;;;66.88;42.10;;;;;;;16.61;78.57;101331.44;5043453;28;20060;-58
2021/07/12 05:09:29;;;;;;;66.95;42.97;;;;;;;16.66;78.24;101334.91;5042276;28;20099;-57
2021/07/12 05:11:56;;;;;;;64.97;41.97;;;;;;;16.73;78.26;101339.19;5042731;28;20025;-58
2021/07/12 05:14:23;;;;;;;64.82;41.03;;;;;;;16.80;78.04;101334.63;5043733;28;20074;-58
2021/07/12 05:16:53;;;;;;;62.38;40.38;;;;;;;16.87;77.54;101323.88;5043328;28;20083;-59
2021/07/12 05:19:19;;;;;;;62.20;40.90;;;;;;;16.95;77.95;101329.91;5042436;28;20065;-59
2021/07/12 05:21:45;;;;;;;62.45;39.55;;;;;;;17.03;77.41;101327.09;5043029;28;20041;-59
2021/07/12 05:24:11;;;;;;;64.13;40.28;;;;;;;17.11;77.25;101327.81;5042845;28;20049;-58
2021/07/12 05:26:36;;;;;;;61.05;39.72;;;;;;;17.21;77.23;101322.31;5042878;28;20025;-58
2021/07/12 05:29:02;;;;;;;57.22;38.47;;;;;;;17.29;76.89;101318.56;5042553;28;20060;-59
2021/07/12 05:31:27;;;;;;;55.67;37.05;;;;;;;17.43;76.16;101325.34;5042712;28;20038;-59
2021/07/12 05:33:53;;;;;;;55.15;36.30;;;;;;;17.48;76.02;101319.03;5042690;28;20093;-59
2021/07/12 05:36:19;;;;;;;57.83;38.42;;;;;;;17.53;76.54;101314.47;5043928;28;20037;-58
2021/07/12 05:38:44;;;;;;;57.72;37.25;;;;;;;17.57;76.18;101312.63;5042711;28;20500;-58
2021/07/12 05:41:09;;;;;;;50.60;35.65;;;;;;;17.59;75.42;101316.13;5043698;28;20100;-59
2021/07/12 05:43:35;;;;;;;55.40;36.95;;;;;;;17.65;75.65;101317.75;5042505;28;20033;-58
2021/07/12 05:46:01;;;;;;;55.63;37.08;;;;;;;17.68;74.92;101321.22;5043548;28;20037;-58
2021/07/12 05:48:26;;;;;;;49.42;35.55;;;;;;;17.78;74.70;101313.91;5042422;28;20022;-59
2021/07/12 05:50:52;;;;;;;51.45;36.35;;;;;;;17.83;75.02;101304.03;5042464;28;20588;-58
2021/07/12 05:53:18;;;;;;;48.00;33.97;;;;;;;17.91;74.44;101311.84;5043074;28;20395;-59
2021/07/12 05:55:43;;;;;;;48.15;34.35;;;;;;;17.92;74.81;101306.50;5043847;28;20030;-58
2021/07/12 05:58:08;;;;;;;52.40;36.13;;;;;;;17.95;74.54;101310.00;5042763;28;20461;-58
2021/07/12 06:00:34;;;;;;;49.03;34.70;;;;;;;18.00;74.23;101313.44;5042850;28;20055;-58
2021/07/12 06:02:59;;;;;;;46.75;33.50;;;;;;;18.07;74.72;101307.03;5042369;28;20049;-58
2021/07/12 06:05:25;;;;;;;49.83;35.30;;;;;;;18.15;75.32;101301.50;5042691;28;20052;-58
2021/07/12 06:07:50;;;;;;;45.10;32.72;;;;;;;18.24;74.63;101293.28;5043254;28;20044;-59
2021/07/12 06:10:16;;;;;;;47.10;33.80;;;;;;;18.34;74.08;101291.28;5042225;28;20038;-59
2021/07/12 06:12:41;;;;;;;41.40;29.50;;;;;;;18.49;73.33;101293.53;5042533;28;20030;-59
2021/07/12 06:15:08;;;;;;;48.58;35.05;;;;;;;18.61;72.32;101287.84;5045563;28;20029;-58
2021/07/12 06:17:34;;;;;;;45.60;32.75;;;;;;;18.86;72.22;101298.69;5047180;28;20030;-58
2021/07/12 06:20:00;;;;;;;40.85;31.65;;;;;;;19.06;70.76;101289.25;5044422;28;20029;-59
2021/07/12 06:22:26;;;;;;;43.05;32.60;;;;;;;19.30;71.27;101292.97;5045980;28;20098;-58
2021/07/12 06:24:51;;;;;;;41.63;30.70;;;;;;;19.43;69.34;101293.44;5046960;28;20029;-58
2021/07/12 06:27:17;;;;;;;41.45;30.90;;;;;;;19.55;68.60;101301.06;5047024;28;20120;-59
2021/07/12 06:29:43;;;;;;;39.80;30.38;;;;;;;19.59;69.49;101307.19;5045379;28;20045;-60
2021/07/12 06:32:09;;;;;;;35.95;27.75;;;;;;;19.66;69.48;101309.59;5043582;28;20054;-59
2021/07/12 06:34:34;;;;;;;32.50;24.33;;;;;;;19.74;68.60;101312.03;5044240;28;20097;-59
2021/07/12 06:37:00;;;;;;;33.88;26.50;;;;;;;19.80;67.53;101305.63;5046330;28;20025;-59
2021/07/12 06:39:26;;;;;;;33.75;26.52;;;;;;;19.79;67.86;101312.78;5042124;28;20034;-59
2021/07/12 06:41:51;;;;;;;36.00;28.25;;;;;;;19.74;66.84;101319.19;5043645;28;20045;-59
2021/07/12 06:44:16;;;;;;;32.67;25.55;;;;;;;19.70;67.28;101315.69;5043605;28;20048;-59
2021/07/12 06:46:42;;;;;;;32.75;25.77;;;;;;;19.71;68.24;101316.56;5037788;28;20037;-59
2021/07/12 06:49:07;;;;;;;27.83;24.25;;;;;;;19.71;67.17;101306.75;5045527;28;20041;-59
2021/07/12 06:51:33;;;;;;;29.80;23.90;;;;;;;19.65;66.75;101312.31;5044047;28;20048;-59
2021/07/12 06:54:00;;;;;;;33.50;25.67;;;;;;;19.65;66.97;101298.97;5044692;28;20149;-58
2021/07/12 06:56:26;;;;;;;26.95;21.95;;;;;;;19.72;66.63;101292.56;5046136;28;20033;-58
2021/07/12 06:58:52;;;;;;;28.77;23.48;;;;;;;19.77;66.61;101295.06;5045117;28;20100;-59
2021/07/12 07:01:17;;;;;;;29.88;23.38;;;;;;;19.79;67.87;101294.09;5045125;28;20037;-58
2021/07/12 07:03:42;;;;;;;27.80;23.23;;;;;;;19.81;68.42;101294.03;5044513;28;20066;-59
2021/07/12 07:06:08;;;;;;;33.17;24.58;;;;;;;19.84;68.27;101294.81;5045900;28;20069;-59
2021/07/12 07:08:33;;;;;;;30.08;22.40;;;;;;;19.81;66.16;101284.25;5045172;28;20468;-59
2021/07/12 07:10:59;;;;;;;30.35;23.05;;;;;;;19.79;66.39;101287.88;5043126;28;20041;-59
2021/07/12 07:13:24;;;;;;;27.67;21.67;;;;;;;19.83;66.01;101295.75;5039741;28;20025;-59
2021/07/12 07:15:50;;;;;;;29.83;24.10;;;;;;;19.88;65.09;101287.56;5044137;28;20057;-58
2021/07/12 07:18:15;;;;;;;30.20;23.27;;;;;;;19.90;64.90;101276.88;5044816;28;20029;-58
2021/07/12 07:20:42;;;;;;;28.00;21.95;;;;;;;19.95;65.22;101285.59;5045534;28;20050;-57
2021/07/12 07:23:08;;;;;;;27.20;21.63;;;;;;;19.95;64.71;101274.94;5044906;28;20045;-57
2021/07/12 07:25:33;;;;;;;27.63;22.30;;;;;;;20.03;65.80;101275.53;5043312;28;20053;-58
2021/07/12 07:27:59;;;;;;;27.92;23.13;;;;;;;20.07;63.88;101277.16;5041845;28;20044;-58
2021/07/12 07:30:25;;;;;;;30.10;21.45;;;;;;;20.18;65.08;101275.00;5044500;28;20041;-58
2021/07/12 07:32:50;;;;;;;29.75;22.05;;;;;;;20.23;64.20;101272.19;5042317;28;20033;-59
2021/07/12 07:35:18;;;;;;;26.25;21.95;;;;;;;20.36;64.38;101264.59;5020063;28;20049;-58
2021/07/12 07:37:46;;;;;;;27.45;21.25;;;;;;;20.38;64.95;101260.09;5042712;28;20034;-57
2021/07/12 07:40:13;;;;;;;25.33;20.33;;;;;;;20.41;63.90;101259.97;5040060;28;20084;-58
2021/07/12 07:42:38;;;;;;;24.95;21.50;;;;;;;20.42;63.12;101261.72;5040531;28;20022;-59
2021/07/12 07:45:05;;;;;;;26.67;22.13;;;;;;;20.51;64.17;101260.50;5042036;28;20448;-58
2021/07/12 07:47:31;;;;;;;23.60;20.63;;;;;;;20.63;64.39;101262.75;5041548;28;20643;-58
2021/07/12 07:49:56;;;;;;;25.42;20.02;;;;;;;20.75;63.36;101262.28;5032720;28;20085;-58
2021/07/12 07:52:22;;;;;;;24.33;21.73;;;;;;;20.81;61.98;101262.09;5043287;28;20036;-58
2021/07/12 07:54:47;;;;;;;24.98;21.27;;;;;;;20.96;61.75;101259.75;5037497;28;20053;-56
2021/07/12 07:57:12;;;;;;;23.35;20.27;;;;;;;21.08;61.39;101256.59;5026662;28;20037;-58
2021/07/12 07:59:38;;;;;;;23.27;19.00;;;;;;;21.20;62.17;101253.44;5023305;28;20022;-56
2021/07/12 08:02:03;;;;;;;23.58;20.02;;;;;;;21.16;61.09;101261.66;5043746;28;20043;-58
2021/07/12 08:04:29;;;;;;;23.85;21.05;;;;;;;21.10;61.80;101245.88;5039437;28;20025;-58
2021/07/12 08:06:55;;;;;;;23.52;20.92;;;;;;;21.14;60.63;101253.69;5055657;28;20048;-57
2021/07/12 08:09:21;;;;;;;23.10;20.30;;;;;;;21.11;61.45;101247.59;5063902;28;20041;-57
2021/07/12 08:11:48;;;;;;;23.80;20.05;;;;;;;21.08;61.95;101247.69;5064783;28;20056;-58
2021/07/12 08:14:14;;;;;;;24.55;20.13;;;;;;;21.19;62.46;101259.72;5064161;28;20021;-58
2021/07/12 08:16:40;;;;;;;21.55;19.13;;;;;;;21.27;60.75;101248.72;5063817;28;20045;-58
2021/07/12 08:19:05;;;;;;;21.70;19.40;;;;;;;21.41;60.02;101242.81;5064233;28;20106;-58
2021/07/12 08:21:31;;;;;;;22.05;18.77;;;;;;;21.55;61.37;101235.16;5063796;28;20040;-58
2021/07/12 08:23:56;;;;;;;19.00;17.00;;;;;;;21.73;61.43;101230.81;5054866;28;20040;-58
2021/07/12 08:26:21;;;;;;;18.40;16.50;;;;;;;21.82;60.67;101231.38;5062333;28;20048;-58
2021/07/12 08:28:47;;;;;;;20.27;17.27;;;;;;;21.87;60.07;101232.94;5062878;28;20036;-58
2021/07/12 08:31:12;;;;;;;21.83;17.90;;;;;;;21.99;60.64;101231.53;5064697;28;20049;-58
2021/07/12 08:33:39;;;;;;;19.30;17.30;;;;;;;22.01;58.88;101229.66;5064784;28;20033;-58
2021/07/12 08:36:05;;;;;;;18.25;16.10;;;;;;;22.02;59.51;101234.06;5064011;28;20040;-57
2021/07/12 08:38:31;;;;;;;21.15;16.75;;;;;;;22.14;58.77;101225.50;5064266;28;20025;-58
2021/07/12 08:40:56;;;;;;;15.98;11.40;;;;;;;22.37;59.34;101231.69;5061706;28;20093;-58
2021/07/12 08:43:23;;;;;;;18.23;14.68;;;;;;;22.55;57.55;101225.50;5061533;28;20056;-57
2021/07/12 08:45:49;;;;;;;19.00;15.43;;;;;;;22.56;56.37;101227.22;5063840;28;20067;-58
2021/07/12 08:48:15;;;;;;;16.35;14.05;;;;;;;22.75;56.96;101229.91;5057583;28;20047;-57
2021/07/12 08:50:42;;;;;;;19.65;15.52;;;;;;;22.85;55.55;101229.50;5059688;28;20049;-58
2021/07/12 08:53:08;;;;;;;18.42;14.98;;;;;;;22.87;56.00;101231.16;5064483;28;20033;-58
2021/07/12 08:55:33;;;;;;;15.98;14.23;;;;;;;23.05;55.85;101229.44;5064404;28;20074;-58
2021/07/12 08:58:05;;;;;;;17.10;14.27;;;;;;;23.04;55.10;101221.47;5064150;28;20036;-58
2021/07/12 09:00:36;;;;;;;15.38;13.15;;;;;;;23.18;57.46;101218.16;5064531;28;20036;-59
2021/07/12 09:03:38;;;;;;;16.80;14.13;;;;;;;23.38;55.59;101218.03;5063266;28;20039;-59
2021/07/12 09:06:12;;;;;;;16.38;12.60;;;;;;;23.40;54.55;101210.75;4993427;28;20098;-59
2021/07/12 09:08:47;;;;;;;10.35;9.32;;;;;;;23.38;53.78;101211.78;5001867;28;20092;-58
2021/07/12 09:11:26;;;;;;;14.82;10.98;;;;;;;23.49;53.81;101209.44;5003165;28;20129;-58
2021/07/12 09:14:04;;;;;;;14.27;12.77;;;;;;;23.52;53.59;101207.47;5000575;28;20070;-57
2021/07/12 09:16:32;;;;;;;13.15;11.32;;;;;;;23.66;52.97;101203.22;5000610;28;20129;-58
2021/07/12 09:19:14;;;;;;;12.20;10.05;;;;;;;23.85;52.20;101201.38;4998758;28;20083;-58
2021/07/12 09:21:45;;;;;;;12.52;11.25;;;;;;;23.85;52.25;101201.38;5001680;28;20542;-58
2021/07/12 09:24:17;;;;;;;12.05;9.80;;;;;;;24.01;52.61;101209.50;4999937;28;20046;-57
2021/07/12 09:26:48;;;;;;;7.53;6.72;;;;;;;24.07;51.15;101201.13;4999990;28;20035;-58
2021/07/12 09:29:22;;;;;;;10.82;9.02;;;;;;;23.99;51.77;101200.66;4999717;28;20081;-58
2021/07/12 09:31:49;;;;;;;9.02;7.65;;;;;;;23.98;51.75;101190.00;5000617;28;20034;-59
2021/07/12 09:34:15;;;;;;;9.57;7.22;;;;;;;23.82;54.23;101193.50;4996740;28;20106;-59
2021/07/12 09:36:41;;;;;;;9.30;8.40;;;;;;;23.79;53.17;101198.16;4999684;28;20209;-59
2021/07/12 09:39:22;;;;;;;9.70;7.22;;;;;;;23.80;53.01;101191.81;5008353;28;20109;-59
2021/07/12 09:41:50;;;;;;;8.25;6.18;;;;;;;23.83;51.88;101189.00;5062141;28;20044;-58
2021/07/12 09:44:23;;;;;;;6.53;5.55;;;;;;;23.73;53.21;101184.06;5061221;28;20033;-58
2021/07/12 09:46:50;;;;;;;7.03;5.97;;;;;;;23.73;53.30;101189.44;5062395;28;20048;-57
2021/07/12 09:49:20;;;;;;;6.68;6.07;;;;;;;23.79;52.50;101190.09;5063311;28;20044;-58
2021/07/12 09:51:45;;;;;;;8.40;7.55;;;;;;;23.67;51.19;101184.38;5066457;28;20049;-59
2021/07/12 09:54:23;;;;;;;9.15;6.60;;;;;;;23.73;52.21;101178.69;5063842;28;20044;-58
2021/07/12 09:56:51;;;;;;;7.05;6.15;;;;;;;23.73;50.68;101181.38;5064245;28;20257;-58
2021/07/12 09:59:18;;;;;;;8.20;7.35;;;;;;;23.75;51.24;101182.16;5063982;28;20039;-58
2021/07/12 10:01:53;;;;;;;9.07;7.80;;;;;;;23.85;52.20;101184.41;5058731;28;20037;-58
2021/07/12 10:04:19;;;;;;;11.68;9.02;;;;;;;23.89;52.40;101178.81;5063082;28;20025;-58
2021/07/12 10:06:47;;;;;;;8.73;7.90;;;;;;;23.97;50.70;101175.72;5064428;28;20037;-58
2021/07/12 10:09:13;;;;;;;7.95;7.15;;;;;;;23.90;53.14;101171.63;5066199;28;20063;-59
2021/07/12 10:11:39;;;;;;;10.25;6.93;;;;;;;24.00;53.82;101167.50;5066745;28;20029;-58
2021/07/12 10:14:05;;;;;;;7.30;6.57;;;;;;;24.01;51.58;101165.72;5065975;28;20025;-58
2021/07/12 10:16:31;;;;;;;7.47;6.50;;;;;;;23.98;52.80;101168.53;5065005;28;20047;-58
2021/07/12 10:18:57;;;;;;;7.25;6.50;;;;;;;23.96;51.93;101165.94;5065177;28;20061;-59
2021/07/12 10:21:22;;;;;;;9.02;6.30;;;;;;;24.03;53.04;101156.63;5065796;28;20040;-58
2021/07/12 10:23:56;;;;;;;7.25;6.55;;;;;;;24.05;51.62;101154.72;5065154;28;20029;-58
2021/07/12 10:26:41;;;;;;;8.00;6.30;;;;;;;23.98;49.35;101150.63;5065549;28;20048;-58
2021/07/12 10:29:11;;;;;;;7.65;6.85;;;;;;;23.93;51.57;101160.72;5063710;28;20060;-58
2021/07/12 10:31:57;;;;;;;7.90;5.38;;;;;;;23.83;52.09;101156.78;5063726;28;20102;-58
2021/07/12 10:34:35;;;;;;;7.90;5.47;;;;;;;23.83;50.50;101157.66;5064885;28;20176;-59
2021/07/12 10:37:20;;;;;;;7.70;5.18;;;;;;;23.84;49.87;101159.41;5062046;28;20096;-59
2021/07/12 10:40:09;;;;;;;8.98;5.28;;;;;;;23.72;51.12;101163.56;5063473;28;20032;-58
2021/07/12 10:42:45;;;;;;;7.03;5.53;;;;;;;23.72;50.93;101158.19;5064508;28;20029;-58
2021/07/12 10:45:20;;;;;;;10.85;5.35;;;;;;;23.79;50.96;101161.44;5064637;28;20403;-58
2021/07/12 10:47:48;;;;;;;6.32;5.72;;;;;;;23.72;52.92;101160.88;5063987;28;20411;-58
2021/07/12 10:50:40;;;;;;;5.85;4.60;;;;;;;23.70;52.58;101161.88;5063462;28;21281;-59
2021/07/12 10:53:12;;;;;;;6.57;5.38;;;;;;;23.80;50.53;101167.66;5064513;28;20136;-59
2021/07/12 10:55:37;;;;;;;6.00;5.40;;;;;;;23.80;50.16;101159.63;5064455;28;20040;-58
2021/07/12 10:58:18;;;;;;;5.38;4.88;;;;;;;23.72;53.30;101162.69;5063393;28;20041;-59
2021/07/12 11:00:47;;;;;;;6.60;5.40;;;;;;;23.69;52.79;101162.84;5061036;28;20026;-58
2021/07/12 11:03:33;;;;;;;5.20;4.70;;;;;;;23.60;50.25;101172.22;5063967;28;20017;-58
2021/07/12 11:05:59;;;;;;;5.90;5.32;;;;;;;23.57;50.10;101153.59;5054476;28;20037;-59
2021/07/12 11:08:50;;;;;;;5.60;5.07;;;;;;;23.51;50.87;101161.97;5063757;28;20680;-59
2021/07/12 11:11:18;;;;;;;7.40;5.57;;;;;;;23.42;51.12;101147.22;5063604;28;20029;-60
2021/07/12 11:14:00;;;;;;;7.55;4.65;;;;;;;23.48;53.09;101154.94;5064153;28;20049;-59
2021/07/12 11:16:41;;;;;;;8.23;4.95;;;;;;;23.43;51.89;101153.44;5060118;28;20064;-59
2021/07/12 11:19:33;;;;;;;6.70;5.55;;;;;;;23.38;53.27;101150.97;5045174;28;20048;-58
2021/07/12 11:22:13;;;;;;;6.15;5.55;;;;;;;23.40;55.33;101154.44;5063300;28;20039;-59